sensor_id;sensor_type;location;lat;lon;timestamp;P1;P2;P0
55076;PMS7003;40971;44.702;11.030;2023-09-12T00:05:59;40.67;38.00;27.00
55076;PMS7003;40971;44.702;11.030;2023-09-12T00:16:03;40.67;39.00;27.33
55076;PMS7003;40971;44.702;11.030;2023-09-12T00:26:07;49.67;42.00;29.33
55076;PMS7003;40971;44.702;11.030;2023-09-12T00:36:09;49.33;44.00;30.00
55076;PMS7003;40971;44.702;11.030;2023-09-12T00:46:10;56.00;45.00;32.00
55076;PMS7003;40971;44.702;11.030;2023-09-12T00:56:13;64.00;53.33;35.33
55076;PMS7003;40971;44.702;11.030;2023-09-12T01:06:15;59.00;48.67;34.00
55076;PMS7003;40971;44.702;11.030;2023-09-12T01:16:24;47.75;42.00;28.00
55076;PMS7003;40971;44.702;11.030;2023-09-12T01:26:30;54.00;44.25;30.75
55076;PMS7003;40971;44.702;11.030;2023-09-12T01:36:44;53.67;45.67;30.00
55076;PMS7003;40971;44.702;11.030;2023-09-12T01:46:46;53.67;45.00;30.00
55076;PMS7003;40971;44.702;11.030;2023-09-12T01:56:52;56.00;47.67;30.67
55076;PMS7003;40971;44.702;11.030;2023-09-12T02:06:59;50.67;45.00;32.00
55076;PMS7003;40971;44.702;11.030;2023-09-12T02:17:01;58.00;47.67;33.00
55076;PMS7003;40971;44.702;11.030;2023-09-12T02:27:03;58.00;49.00;33.00
55076;PMS7003;40971;44.702;11.030;2023-09-12T02:37:08;60.44;50.78;34.11
55076;PMS7003;40971;44.702;11.030;2023-09-12T02:47:09;58.00;49.33;33.00
55076;PMS7003;40971;44.702;11.030;2023-09-12T02:57:11;56.00;49.00;32.67
55076;PMS7003;40971;44.702;11.030;2023-09-12T03:07:12;61.00;51.60;34.20
55076;PMS7003;40971;44.702;11.030;2023-09-12T03:17:15;61.67;52.33;36.00
55076;PMS7003;40971;44.702;11.030;2023-09-12T03:27:17;58.25;48.50;33.00
55076;PMS7003;40971;44.702;11.030;2023-09-12T03:37:19;67.33;56.00;39.67
55076;PMS7003;40971;44.702;11.030;2023-09-12T03:47:20;62.67;51.67;35.00
55076;PMS7003;40971;44.702;11.030;2023-09-12T03:57:21;59.00;50.67;32.67
55076;PMS7003;40971;44.702;11.030;2023-09-12T04:07:26;63.22;51.44;34.78
55076;PMS7003;40971;44.702;11.030;2023-09-12T04:17:28;59.00;50.00;34.00
55076;PMS7003;40971;44.702;11.030;2023-09-12T04:27:29;72.67;59.00;38.00
55076;PMS7003;40971;44.702;11.030;2023-09-12T04:37:30;67.00;55.33;36.67
55076;PMS7003;40971;44.702;11.030;2023-09-12T04:47:32;72.33;57.67;35.67
55076;PMS7003;40971;44.702;11.030;2023-09-12T04:57:34;77.67;64.00;41.33
55076;PMS7003;40971;44.702;11.030;2023-09-12T05:07:35;71.33;59.00;37.67
55076;PMS7003;40971;44.702;11.030;2023-09-12T05:17:37;73.00;59.67;39.67
55076;PMS7003;40971;44.702;11.030;2023-09-12T05:27:39;69.33;57.67;38.67
55076;PMS7003;40971;44.702;11.030;2023-09-12T05:37:41;79.67;63.67;42.00
55076;PMS7003;40971;44.702;11.030;2023-09-12T05:47:43;75.60;61.60;40.40
55076;PMS7003;40971;44.702;11.030;2023-09-12T05:57:45;79.00;65.00;41.67
55076;PMS7003;40971;44.702;11.030;2023-09-12T06:07:49;72.00;58.67;39.00
55076;PMS7003;40971;44.702;11.030;2023-09-12T06:17:53;78.00;62.38;39.88
55076;PMS7003;40971;44.702;11.030;2023-09-12T06:27:55;70.67;58.33;38.67
55076;PMS7003;40971;44.702;11.030;2023-09-12T06:37:57;62.50;50.25;33.50
55076;PMS7003;40971;44.702;11.030;2023-09-12T06:48:01;54.25;46.00;31.00
55076;PMS7003;40971;44.702;11.030;2023-09-12T06:58:03;49.25;42.00;30.00
55076;PMS7003;40971;44.702;11.030;2023-09-12T07:08:07;45.75;40.00;27.00
55076;PMS7003;40971;44.702;11.030;2023-09-12T07:18:10;38.75;36.00;26.00
55076;PMS7003;40971;44.702;11.030;2023-09-12T07:28:12;42.00;36.33;25.33
55076;PMS7003;40971;44.702;11.030;2023-09-12T07:38:16;37.75;35.00;25.00
55076;PMS7003;40971;44.702;11.030;2023-09-12T07:48:19;38.25;34.50;25.00
55076;PMS7003;40971;44.702;11.030;2023-09-12T07:58:21;29.60;29.60;21.80
55076;PMS7003;40971;44.702;11.030;2023-09-12T08:08:24;29.25;28.00;20.75
55076;PMS7003;40971;44.702;11.030;2023-09-12T08:18:31;30.00;29.75;21.63
55076;PMS7003;40971;44.702;11.030;2023-09-12T08:28:34;37.00;34.00;24.33
55076;PMS7003;40971;44.702;11.030;2023-09-12T08:38:37;36.00;32.33;23.00
55076;PMS7003;40971;44.702;11.030;2023-09-12T08:48:38;43.50;37.50;25.50
55076;PMS7003;40971;44.702;11.030;2023-09-12T08:58:42;49.00;41.75;29.25
55076;PMS7003;40971;44.702;11.030;2023-09-12T09:08:45;47.33;39.00;27.33
55076;PMS7003;40971;44.702;11.030;2023-09-12T09:19:00;43.50;38.00;24.50
55076;PMS7003;40971;44.702;11.030;2023-09-12T09:29:09;37.20;33.60;23.60
55076;PMS7003;40971;44.702;11.030;2023-09-12T09:39:13;38.67;34.67;24.33
55076;PMS7003;40971;44.702;11.030;2023-09-12T09:49:14;42.50;37.00;27.00
55076;PMS7003;40971;44.702;11.030;2023-09-12T09:59:18;35.67;32.50;23.83
55076;PMS7003;40971;44.702;11.030;2023-09-12T10:09:25;40.20;36.20;24.80
55076;PMS7003;40971;44.702;11.030;2023-09-12T10:19:35;39.50;35.00;25.00
55076;PMS7003;40971;44.702;11.030;2023-09-12T10:29:41;39.67;35.67;26.00
55076;PMS7003;40971;44.702;11.030;2023-09-12T10:39:45;34.57;32.29;23.71
55076;PMS7003;40971;44.702;11.030;2023-09-12T10:49:48;29.25;28.75;21.00
55076;PMS7003;40971;44.702;11.030;2023-09-12T11:20:17;25.60;25.60;20.00
55076;PMS7003;40971;44.702;11.030;2023-09-12T11:30:21;24.60;24.60;20.20
55076;PMS7003;40971;44.702;11.030;2023-09-12T11:40:41;28.00;27.00;20.00
55076;PMS7003;40971;44.702;11.030;2023-09-12T11:50:49;28.20;27.40;20.00
55076;PMS7003;40971;44.702;11.030;2023-09-12T12:00:54;29.00;27.80;20.00
55076;PMS7003;40971;44.702;11.030;2023-09-12T12:10:58;27.20;26.00;20.80
55076;PMS7003;40971;44.702;11.030;2023-09-12T12:21:01;27.80;27.00;20.00
55076;PMS7003;40971;44.702;11.030;2023-09-12T12:31:07;25.63;25.63;19.50
55076;PMS7003;40971;44.702;11.030;2023-09-12T12:41:12;25.38;25.25;19.63
55076;PMS7003;40971;44.702;11.030;2023-09-12T12:51:23;25.40;25.40;19.80
55076;PMS7003;40971;44.702;11.030;2023-09-12T13:01:26;22.00;22.00;17.00
55076;PMS7003;40971;44.702;11.030;2023-09-12T13:11:28;17.25;17.25;15.25
55076;PMS7003;40971;44.702;11.030;2023-09-12T13:21:31;23.40;23.40;18.20
55076;PMS7003;40971;44.702;11.030;2023-09-12T13:31:35;23.80;22.80;18.60
55076;PMS7003;40971;44.702;11.030;2023-09-12T13:41:39;22.00;22.00;15.40
55076;PMS7003;40971;44.702;11.030;2023-09-12T13:51:42;21.00;20.33;15.33
55076;PMS7003;40971;44.702;11.030;2023-09-12T14:01:47;21.11;21.11;17.67
55076;PMS7003;40971;44.702;11.030;2023-09-12T14:11:48;21.33;21.33;16.67
55076;PMS7003;40971;44.702;11.030;2023-09-12T14:21:51;22.75;22.75;16.75
55076;PMS7003;40971;44.702;11.030;2023-09-12T14:31:53;20.80;19.00;15.00
55076;PMS7003;40971;44.702;11.030;2023-09-12T14:41:59;22.67;21.00;15.67
55076;PMS7003;40971;44.702;11.030;2023-09-12T14:52:03;21.00;20.33;16.33
55076;PMS7003;40971;44.702;11.030;2023-09-12T15:02:05;19.33;18.67;14.67
55076;PMS7003;40971;44.702;11.030;2023-09-12T15:12:08;20.40;20.40;15.40
55076;PMS7003;40971;44.702;11.030;2023-09-12T15:22:11;22.00;22.00;18.00
55076;PMS7003;40971;44.702;11.030;2023-09-12T15:32:13;20.00;20.00;16.80
55076;PMS7003;40971;44.702;11.030;2023-09-12T15:42:15;18.00;17.67;15.33
55076;PMS7003;40971;44.702;11.030;2023-09-12T15:52:18;21.50;21.50;16.83
55076;PMS7003;40971;44.702;11.030;2023-09-12T16:02:20;23.40;23.40;17.40
55076;PMS7003;40971;44.702;11.030;2023-09-12T16:12:23;21.80;21.80;17.40
55076;PMS7003;40971;44.702;11.030;2023-09-12T16:22:26;26.20;25.20;19.00
55076;PMS7003;40971;44.702;11.030;2023-09-12T16:32:28;23.00;22.40;18.40
55076;PMS7003;40971;44.702;11.030;2023-09-12T16:42:31;24.17;23.33;19.33
55076;PMS7003;40971;44.702;11.030;2023-09-12T16:52:35;25.00;24.75;19.75
55076;PMS7003;40971;44.702;11.030;2023-09-12T17:02:38;25.20;25.20;19.40
55076;PMS7003;40971;44.702;11.030;2023-09-12T17:12:41;26.25;24.50;19.00
55076;PMS7003;40971;44.702;11.030;2023-09-12T17:22:44;27.00;27.00;19.50
55076;PMS7003;40971;44.702;11.030;2023-09-12T17:32:50;26.75;26.75;20.00
55076;PMS7003;40971;44.702;11.030;2023-09-12T17:42:52;25.00;24.00;19.50
55076;PMS7003;40971;44.702;11.030;2023-09-12T17:52:54;26.50;25.50;20.00
55076;PMS7003;40971;44.702;11.030;2023-09-12T18:02:58;28.75;28.25;20.50
55076;PMS7003;40971;44.702;11.030;2023-09-12T18:13:03;30.00;28.25;21.13
55076;PMS7003;40971;44.702;11.030;2023-09-12T18:23:04;29.00;28.00;20.50
55076;PMS7003;40971;44.702;11.030;2023-09-12T18:33:06;26.25;26.25;21.50
55076;PMS7003;40971;44.702;11.030;2023-09-12T18:43:08;30.67;30.33;21.00
55076;PMS7003;40971;44.702;11.030;2023-09-12T18:53:09;26.67;26.67;20.67
55076;PMS7003;40971;44.702;11.030;2023-09-12T19:03:16;28.50;27.50;20.50
55076;PMS7003;40971;44.702;11.030;2023-09-12T19:13:18;25.00;25.00;20.00
55076;PMS7003;40971;44.702;11.030;2023-09-12T19:23:20;30.75;29.50;21.50
55076;PMS7003;40971;44.702;11.030;2023-09-12T19:33:23;29.67;29.67;23.00
55076;PMS7003;40971;44.702;11.030;2023-09-12T19:43:27;26.25;25.63;20.88
55076;PMS7003;40971;44.702;11.030;2023-09-12T19:53:29;32.75;30.00;22.00
55076;PMS7003;40971;44.702;11.030;2023-09-12T20:03:33;32.25;31.50;23.00
55076;PMS7003;40971;44.702;11.030;2023-09-12T20:13:35;31.00;29.67;22.00
55076;PMS7003;40971;44.702;11.030;2023-09-12T20:23:38;28.60;28.00;21.00
55076;PMS7003;40971;44.702;11.030;2023-09-12T20:33:40;31.00;31.00;22.33
55076;PMS7003;40971;44.702;11.030;2023-09-12T20:43:44;29.13;28.25;21.25
55076;PMS7003;40971;44.702;11.030;2023-09-12T20:53:47;30.00;30.00;22.00
55076;PMS7003;40971;44.702;11.030;2023-09-12T21:03:49;26.00;25.00;21.33
55076;PMS7003;40971;44.702;11.030;2023-09-12T21:13:50;31.67;30.00;21.67
55076;PMS7003;40971;44.702;11.030;2023-09-12T21:23:51;34.00;32.00;24.00
55076;PMS7003;40971;44.702;11.030;2023-09-12T21:33:53;34.00;33.67;23.67
55076;PMS7003;40971;44.702;11.030;2023-09-12T21:43:54;30.67;30.67;22.67
55076;PMS7003;40971;44.702;11.030;2023-09-12T21:53:56;37.50;34.75;24.25
55076;PMS7003;40971;44.702;11.030;2023-09-12T22:03:58;35.67;34.00;25.00
55076;PMS7003;40971;44.702;11.030;2023-09-12T22:14:01;34.50;34.00;25.00
55076;PMS7003;40971;44.702;11.030;2023-09-12T22:24:03;38.33;36.33;26.00
55076;PMS7003;40971;44.702;11.030;2023-09-12T22:34:06;42.75;38.00;27.25
55076;PMS7003;40971;44.702;11.030;2023-09-12T22:44:09;40.00;37.00;27.50
55076;PMS7003;40971;44.702;11.030;2023-09-12T22:54:10;36.33;35.00;25.00
55076;PMS7003;40971;44.702;11.030;2023-09-12T23:04:13;43.75;37.75;25.75
55076;PMS7003;40971;44.702;11.030;2023-09-12T23:14:15;41.50;37.00;26.50
55076;PMS7003;40971;44.702;11.030;2023-09-12T23:24:18;41.25;37.00;27.25
55076;PMS7003;40971;44.702;11.030;2023-09-12T23:34:21;42.75;38.50;27.00
55076;PMS7003;40971;44.702;11.030;2023-09-12T23:44:23;45.50;39.25;27.75
55076;PMS7003;40971;44.702;11.030;2023-09-12T23:54:26;43.50;38.75;28.00
